Kissimmee Gateway Airport
KISM : now visible

Airfield :











YOU CAN JOIN US ON...

 
LOGIN :

Register | Disclaimer

   EN    FR    IT 

 









Legend :    VFR   Marginal VFR   IFR   Intensive IFR   Very Intensive IFR
Visi :
Ceiling :
>= 8 km
>= 3000ft
5 to 8 km
1000 to 3000 ft
1500m to 5 km
500 to 1000 ft
800 to 1500m
200 to 500 ft
< 800m
< 200 ft
Symbols :   Thunderstorms  Fog  Heavy snow  Heavy precipitations  Wind > 20 kt






- Airport Elevation : 82 ft


KISM - Kissimmee Gateway

CURRENT METAR :
  • 010056Z 24011KT 10SM BKN030 BKN040 OVC095 26/21 A2974 RMK AO2 SLP070 T02610211 PNO $

EXPIRED METARs :
  • 312356Z 25017G20KT 10SM BKN037 27/21 A2975 RMK AO2 SLP072 6//// T02670206 10311 20267 50001 PNO $

TAF KISM
Valid from the 01 at 00:00 until the 02 at 00:00 UTC


312345Z 0100/0124 26014G22KT P6SM SCT060 SCT250
FM010200 25011G18KT P6SM VCSH SCT025 BKN040
TEMPO 0102/0105 5SM SHRA BKN025
FM010700 29011G18KT P6SM SCT020 BKN040
FM011400 33011KT P6SM SKC
FM012300 01006KT P6SM SKC



MET'MAP, your aeronautical weather chart ! - Copyright ORBIFLY December 2007 - Disclaimer

ORBIFLY MET'MAP TEAM :

Programming & Development : Alexandra Zaïnal
Concept & original design : Baudouin d'Aumeries
Assistance for programming : Marc-Olivier Méhu
Technical & hardware support : Manuel Goepfert

Contact : metmap@orbifly.com




SOURCES & CREDITS :

   NOAA       Earth
Advisory